sensor_id;sensor_type;location;lat;lon;timestamp;pressure;altitude;pressure_sealevel;temperature;humidity
9325;BME280;4701;51.566;6.776;2022-11-03T05:01:58;100951.16;;;11.57;76.97
9325;BME280;4701;51.566;6.776;2022-11-03T05:04:00;100940.56;;;11.61;77.08
9325;BME280;4701;51.566;6.776;2022-11-03T05:06:10;100938.09;;;11.59;77.16
9325;BME280;4701;51.566;6.776;2022-11-03T05:08:12;100936.72;;;11.62;76.98
9325;BME280;4701;51.566;6.776;2022-11-03T05:10:15;100931.00;;;11.63;77.14
9325;BME280;4701;51.566;6.776;2022-11-03T05:12:18;100924.47;;;11.64;77.13
9325;BME280;4701;51.566;6.776;2022-11-03T05:14:24;100932.34;;;11.66;76.86
9325;BME280;4701;51.566;6.776;2022-11-03T05:16:27;100933.47;;;11.65;77.26
9325;BME280;4701;51.566;6.776;2022-11-03T05:18:32;100931.53;;;11.65;77.30
9325;BME280;4701;51.566;6.776;2022-11-03T05:20:41;100918.19;;;11.64;77.35
9325;BME280;4701;51.566;6.776;2022-11-03T05:22:44;100921.72;;;11.64;77.51
9325;BME280;4701;51.566;6.776;2022-11-03T05:24:46;100917.34;;;11.63;77.45
9325;BME280;4701;51.566;6.776;2022-11-03T05:26:48;100923.91;;;11.67;77.37
9325;BME280;4701;51.566;6.776;2022-11-03T05:28:51;100916.28;;;11.69;77.46
9325;BME280;4701;51.566;6.776;2022-11-03T05:30:55;100914.38;;;11.70;77.24
9325;BME280;4701;51.566;6.776;2022-11-03T05:32:57;100903.72;;;11.68;77.50
9325;BME280;4701;51.566;6.776;2022-11-03T05:35:00;100908.91;;;11.70;77.39
9325;BME280;4701;51.566;6.776;2022-11-03T05:37:14;100906.97;;;11.65;77.58
9325;BME280;4701;51.566;6.776;2022-11-03T05:39:28;100907.53;;;11.67;77.45
9325;BME280;4701;51.566;6.776;2022-11-03T05:41:30;100896.63;;;11.72;77.33
9325;BME280;4701;51.566;6.776;2022-11-03T05:43:32;100898.56;;;11.77;77.25
9325;BME280;4701;51.566;6.776;2022-11-03T05:45:34;100888.19;;;11.79;77.11
9325;BME280;4701;51.566;6.776;2022-11-03T05:47:38;100891.75;;;11.85;77.00
9325;BME280;4701;51.566;6.776;2022-11-03T05:49:40;100885.72;;;11.83;77.01
9325;BME280;4701;51.566;6.776;2022-11-03T05:51:44;100882.47;;;11.86;76.75
9325;BME280;4701;51.566;6.776;2022-11-03T05:53:49;100886.28;;;11.85;76.81
9325;BME280;4701;51.566;6.776;2022-11-03T05:55:52;100878.34;;;11.83;76.85
9325;BME280;4701;51.566;6.776;2022-11-03T05:57:55;100872.63;;;11.80;76.88
9325;BME280;4701;51.566;6.776;2022-11-03T05:59:58;100878.09;;;11.85;76.93
9325;BME280;4701;51.566;6.776;2022-11-03T06:02:00;100869.06;;;11.84;76.89
9325;BME280;4701;51.566;6.776;2022-11-03T06:04:13;100874.53;;;11.84;76.85
9325;BME280;4701;51.566;6.776;2022-11-03T06:06:19;100877.53;;;11.83;77.03
9325;BME280;4701;51.566;6.776;2022-11-03T06:08:25;100871.00;;;11.79;77.10
9325;BME280;4701;51.566;6.776;2022-11-03T06:10:30;100877.53;;;11.78;77.12
9325;BME280;4701;51.566;6.776;2022-11-03T06:12:32;100864.41;;;11.74;77.21
9325;BME280;4701;51.566;6.776;2022-11-03T06:14:35;100867.69;;;11.71;77.46
9325;BME280;4701;51.566;6.776;2022-11-03T06:16:39;100863.88;;;11.72;77.44
9325;BME280;4701;51.566;6.776;2022-11-03T06:18:42;100860.59;;;11.75;77.39
9325;BME280;4701;51.566;6.776;2022-11-03T06:20:48;100871.00;;;11.79;77.25
9325;BME280;4701;51.566;6.776;2022-11-03T06:22:53;100868.53;;;11.77;77.21
9325;BME280;4701;51.566;6.776;2022-11-03T06:24:59;100848.84;;;11.75;77.48
9325;BME280;4701;51.566;6.776;2022-11-03T06:27:02;100847.78;;;11.76;77.15
9325;BME280;4701;51.566;6.776;2022-11-03T06:29:04;100856.50;;;11.73;77.52
9325;BME280;4701;51.566;6.776;2022-11-03T06:31:13;100855.38;;;11.74;77.66
9325;BME280;4701;51.566;6.776;2022-11-03T06:33:22;100851.31;;;11.77;77.77
9325;BME280;4701;51.566;6.776;2022-11-03T06:35:24;100846.13;;;11.75;77.53
9325;BME280;4701;51.566;6.776;2022-11-03T06:37:30;100838.22;;;11.79;77.40
9325;BME280;4701;51.566;6.776;2022-11-03T06:39:32;100830.56;;;11.75;77.53
9325;BME280;4701;51.566;6.776;2022-11-03T06:41:36;100838.78;;;11.81;77.40
9325;BME280;4701;51.566;6.776;2022-11-03T06:43:40;100836.56;;;11.83;77.22
9325;BME280;4701;51.566;6.776;2022-11-03T06:45:48;100833.03;;;11.87;77.29
9325;BME280;4701;51.566;6.776;2022-11-03T06:47:51;100828.94;;;11.85;77.14
9325;BME280;4701;51.566;6.776;2022-11-03T06:49:55;100831.41;;;11.86;77.02
9325;BME280;4701;51.566;6.776;2022-11-03T06:51:58;100826.19;;;11.85;77.13
9325;BME280;4701;51.566;6.776;2022-11-03T06:54:04;100819.66;;;11.91;76.75
9325;BME280;4701;51.566;6.776;2022-11-03T06:56:11;100816.09;;;11.85;76.97
9325;BME280;4701;51.566;6.776;2022-11-03T06:58:26;100830.03;;;11.84;76.87
9325;BME280;4701;51.566;6.776;2022-11-03T07:00:29;100829.47;;;11.87;76.78
9325;BME280;4701;51.566;6.776;2022-11-03T07:02:52;100814.72;;;11.93;76.64
9325;BME280;4701;51.566;6.776;2022-11-03T07:04:55;100811.47;;;11.91;76.45
9325;BME280;4701;51.566;6.776;2022-11-03T07:07:00;100813.91;;;11.92;76.66
9325;BME280;4701;51.566;6.776;2022-11-03T07:09:04;100812.00;;;11.93;76.60
9325;BME280;4701;51.566;6.776;2022-11-03T07:11:10;100818.00;;;11.95;76.39
9325;BME280;4701;51.566;6.776;2022-11-03T07:13:18;100812.00;;;11.98;76.34
9325;BME280;4701;51.566;6.776;2022-11-03T07:15:26;100815.84;;;11.97;76.22
9325;BME280;4701;51.566;6.776;2022-11-03T07:17:29;100801.91;;;11.98;76.15
9325;BME280;4701;51.566;6.776;2022-11-03T07:19:33;100805.72;;;12.02;76.09
9325;BME280;4701;51.566;6.776;2022-11-03T07:21:39;100805.19;;;12.05;75.61
9325;BME280;4701;51.566;6.776;2022-11-03T07:23:42;100801.06;;;12.08;75.64
9325;BME280;4701;51.566;6.776;2022-11-03T07:25:48;100799.69;;;12.10;75.67
9325;BME280;4701;51.566;6.776;2022-11-03T07:27:54;100794.50;;;12.09;75.43
9325;BME280;4701;51.566;6.776;2022-11-03T07:29:59;100790.97;;;12.13;75.38
9325;BME280;4701;51.566;6.776;2022-11-03T07:32:11;100787.66;;;12.17;75.16
9325;BME280;4701;51.566;6.776;2022-11-03T07:34:20;100792.31;;;12.21;75.25
9325;BME280;4701;51.566;6.776;2022-11-03T07:36:23;100788.22;;;12.24;75.06
9325;BME280;4701;51.566;6.776;2022-11-03T07:38:27;100791.19;;;12.27;74.67
9325;BME280;4701;51.566;6.776;2022-11-03T07:40:31;100787.38;;;12.28;75.20
9325;BME280;4701;51.566;6.776;2022-11-03T07:42:34;100783.81;;;12.33;74.63
9325;BME280;4701;51.566;6.776;2022-11-03T07:44:35;100776.44;;;12.33;74.91
9325;BME280;4701;51.566;6.776;2022-11-03T07:46:39;100771.50;;;12.40;74.62
9325;BME280;4701;51.566;6.776;2022-11-03T07:48:43;100774.19;;;12.45;74.32
9325;BME280;4701;51.566;6.776;2022-11-03T07:50:46;100776.63;;;12.52;74.06
9325;BME280;4701;51.566;6.776;2022-11-03T07:52:48;100764.34;;;12.55;73.87
9325;BME280;4701;51.566;6.776;2022-11-03T07:54:51;100767.34;;;12.58;73.62
9325;BME280;4701;51.566;6.776;2022-11-03T07:56:58;100757.22;;;12.59;73.73
9325;BME280;4701;51.566;6.776;2022-11-03T07:59:04;100762.97;;;12.57;73.55
9325;BME280;4701;51.566;6.776;2022-11-03T08:01:26;100753.91;;;12.62;73.36
9325;BME280;4701;51.566;6.776;2022-11-03T08:03:41;100759.63;;;12.70;73.43
9325;BME280;4701;51.566;6.776;2022-11-03T08:05:45;100756.88;;;12.75;73.46
9325;BME280;4701;51.566;6.776;2022-11-03T08:07:46;100750.81;;;12.78;72.87
9325;BME280;4701;51.566;6.776;2022-11-03T08:09:48;100747.78;;;12.85;72.55
9325;BME280;4701;51.566;6.776;2022-11-03T08:11:50;100753.78;;;12.87;72.77
9325;BME280;4701;51.566;6.776;2022-11-03T08:13:53;100745.03;;;12.85;72.42
9325;BME280;4701;51.566;6.776;2022-11-03T08:15:54;100751.06;;;12.87;72.18
9325;BME280;4701;51.566;6.776;2022-11-03T08:17:56;100754.88;;;12.86;72.37
9325;BME280;4701;51.566;6.776;2022-11-03T08:19:59;100752.69;;;12.88;72.26
9325;BME280;4701;51.566;6.776;2022-11-03T08:22:01;100749.97;;;12.88;72.57
9325;BME280;4701;51.566;6.776;2022-11-03T08:24:05;100737.91;;;12.89;72.02
9325;BME280;4701;51.566;6.776;2022-11-03T08:26:07;100737.38;;;12.87;72.16
9325;BME280;4701;51.566;6.776;2022-11-03T08:28:09;100731.09;;;12.86;72.41
9325;BME280;4701;51.566;6.776;2022-11-03T08:30:12;100731.63;;;12.88;72.37
9325;BME280;4701;51.566;6.776;2022-11-03T08:32:14;100730.00;;;12.87;72.14
9325;BME280;4701;51.566;6.776;2022-11-03T08:34:15;100729.44;;;12.91;72.22
9325;BME280;4701;51.566;6.776;2022-11-03T08:36:18;100720.13;;;12.92;71.91
9325;BME280;4701;51.566;6.776;2022-11-03T08:38:21;100722.00;;;12.96;71.49
9325;BME280;4701;51.566;6.776;2022-11-03T08:40:23;100722.28;;;13.00;71.54
9325;BME280;4701;51.566;6.776;2022-11-03T08:42:25;100720.59;;;13.04;71.66
9325;BME280;4701;51.566;6.776;2022-11-03T08:44:26;100720.56;;;13.09;71.07
9325;BME280;4701;51.566;6.776;2022-11-03T08:46:28;100717.81;;;13.14;70.84
9325;BME280;4701;51.566;6.776;2022-11-03T08:48:30;100717.81;;;13.14;70.27
9325;BME280;4701;51.566;6.776;2022-11-03T08:50:32;100715.84;;;13.19;70.28
9325;BME280;4701;51.566;6.776;2022-11-03T08:52:35;100705.72;;;13.25;70.82
9325;BME280;4701;51.566;6.776;2022-11-03T08:54:37;100704.63;;;13.26;70.44
9325;BME280;4701;51.566;6.776;2022-11-03T08:56:39;100697.44;;;13.30;70.46
9325;BME280;4701;51.566;6.776;2022-11-03T08:58:41;100679.09;;;13.31;70.43
9325;BME280;4701;51.566;6.776;2022-11-03T09:00:42;100673.06;;;13.34;70.01
9325;BME280;4701;51.566;6.776;2022-11-03T09:02:44;100663.44;;;13.36;69.78
9325;BME280;4701;51.566;6.776;2022-11-03T09:04:46;100681.28;;;13.34;70.26
9325;BME280;4701;51.566;6.776;2022-11-03T09:06:48;100680.47;;;13.33;70.41
9325;BME280;4701;51.566;6.776;2022-11-03T09:08:52;100683.47;;;13.32;70.21
9325;BME280;4701;51.566;6.776;2022-11-03T09:10:53;100668.09;;;13.36;70.28
9325;BME280;4701;51.566;6.776;2022-11-03T09:12:55;100660.72;;;13.36;69.87
9325;BME280;4701;51.566;6.776;2022-11-03T09:14:57;100656.66;;;13.34;69.84
9325;BME280;4701;51.566;6.776;2022-11-03T09:16:59;100664.56;;;13.35;69.92
9325;BME280;4701;51.566;6.776;2022-11-03T09:19:01;100649.53;;;13.33;70.02
9325;BME280;4701;51.566;6.776;2022-11-03T09:21:03;100653.63;;;13.35;70.43
9325;BME280;4701;51.566;6.776;2022-11-03T09:23:05;100641.03;;;13.34;69.53
9325;BME280;4701;51.566;6.776;2022-11-03T09:25:09;100633.88;;;13.38;69.99
9325;BME280;4701;51.566;6.776;2022-11-03T09:27:11;100622.91;;;13.38;69.66
9325;BME280;4701;51.566;6.776;2022-11-03T09:29:12;100625.38;;;13.40;69.96
9325;BME280;4701;51.566;6.776;2022-11-03T09:31:14;100621.19;;;13.47;69.49
9325;BME280;4701;51.566;6.776;2022-11-03T09:33:16;100608.84;;;13.50;69.52
9325;BME280;4701;51.566;6.776;2022-11-03T09:35:18;100607.97;;;13.54;69.24
9325;BME280;4701;51.566;6.776;2022-11-03T09:37:19;100609.88;;;13.59;69.02
9325;BME280;4701;51.566;6.776;2022-11-03T09:39:22;100608.97;;;13.63;69.42
9325;BME280;4701;51.566;6.776;2022-11-03T09:41:26;100590.53;;;13.74;69.17
9325;BME280;4701;51.566;6.776;2022-11-03T09:43:28;100585.75;;;13.85;68.86
9325;BME280;4701;51.566;6.776;2022-11-03T09:45:30;100586.75;;;13.94;67.94
9325;BME280;4701;51.566;6.776;2022-11-03T09:47:34;100574.59;;;14.00;68.19
9325;BME280;4701;51.566;6.776;2022-11-03T09:49:37;100575.03;;;14.07;67.44
9325;BME280;4701;51.566;6.776;2022-11-03T09:51:39;100567.00;;;14.16;66.64
9325;BME280;4701;51.566;6.776;2022-11-03T09:53:42;100561.94;;;14.23;66.46
9325;BME280;4701;51.566;6.776;2022-11-03T09:55:43;100562.47;;;14.25;66.36
9325;BME280;4701;51.566;6.776;2022-11-03T09:57:47;100557.22;;;14.28;66.03
9325;BME280;4701;51.566;6.776;2022-11-03T09:59:49;100552.56;;;14.29;66.20
9325;BME280;4701;51.566;6.776;2022-11-03T10:01:52;100558.91;;;14.24;66.21
9325;BME280;4701;51.566;6.776;2022-11-03T10:03:58;100542.47;;;14.24;66.26
9325;BME280;4701;51.566;6.776;2022-11-03T10:06:00;100525.44;;;14.27;66.25
9325;BME280;4701;51.566;6.776;2022-11-03T10:08:04;100531.13;;;14.31;66.39
9325;BME280;4701;51.566;6.776;2022-11-03T10:10:14;100528.09;;;14.32;66.10
9325;BME280;4701;51.566;6.776;2022-11-03T10:12:18;100519.66;;;14.29;65.80
9325;BME280;4701;51.566;6.776;2022-11-03T10:14:21;100526.75;;;14.30;66.14
9325;BME280;4701;51.566;6.776;2022-11-03T10:16:24;100514.53;;;14.22;66.11
9325;BME280;4701;51.566;6.776;2022-11-03T10:18:27;100519.72;;;14.24;65.77
9325;BME280;4701;51.566;6.776;2022-11-03T10:20:29;100501.06;;;14.26;65.61
9325;BME280;4701;51.566;6.776;2022-11-03T10:22:31;100507.41;;;14.21;65.96
9325;BME280;4701;51.566;6.776;2022-11-03T10:24:33;100499.19;;;14.21;66.14
9325;BME280;4701;51.566;6.776;2022-11-03T10:26:43;100487.88;;;14.28;65.43
9325;BME280;4701;51.566;6.776;2022-11-03T10:28:59;100491.44;;;14.28;65.68
9325;BME280;4701;51.566;6.776;2022-11-03T10:31:04;100495.19;;;14.32;65.17
9325;BME280;4701;51.566;6.776;2022-11-03T10:33:23;100490.25;;;14.34;65.34
9325;BME280;4701;51.566;6.776;2022-11-03T10:35:33;100489.63;;;14.37;64.75
9325;BME280;4701;51.566;6.776;2022-11-03T10:37:35;100488.50;;;14.44;64.56
9325;BME280;4701;51.566;6.776;2022-11-03T10:39:38;100482.91;;;14.49;64.94
9325;BME280;4701;51.566;6.776;2022-11-03T10:41:55;100482.31;;;14.52;64.40
9325;BME280;4701;51.566;6.776;2022-11-03T10:44:02;100465.25;;;14.55;64.36
9325;BME280;4701;51.566;6.776;2022-11-03T10:46:11;100469.94;;;14.54;63.82
9325;BME280;4701;51.566;6.776;2022-11-03T10:48:13;100471.25;;;14.57;63.56
9325;BME280;4701;51.566;6.776;2022-11-03T10:50:20;100456.13;;;14.59;63.46
9325;BME280;4701;51.566;6.776;2022-11-03T10:52:24;100447.09;;;14.59;63.13
9325;BME280;4701;51.566;6.776;2022-11-03T10:54:27;100442.44;;;14.59;62.86
9325;BME280;4701;51.566;6.776;2022-11-03T10:56:29;100438.28;;;14.62;62.89
9325;BME280;4701;51.566;6.776;2022-11-03T10:58:32;100430.06;;;14.62;63.28
9325;BME280;4701;51.566;6.776;2022-11-03T11:00:34;100414.59;;;14.66;63.27
9325;BME280;4701;51.566;6.776;2022-11-03T11:02:37;100404.97;;;14.68;62.13
9325;BME280;4701;51.566;6.776;2022-11-03T11:04:41;100404.75;;;14.65;61.83
9325;BME280;4701;51.566;6.776;2022-11-03T11:06:44;100396.72;;;14.68;62.03
9325;BME280;4701;51.566;6.776;2022-11-03T11:08:47;100403.44;;;14.76;61.77
9325;BME280;4701;51.566;6.776;2022-11-03T11:10:50;100388.22;;;14.84;61.02
9325;BME280;4701;51.566;6.776;2022-11-03T11:13:23;100395.56;;;14.88;61.13
9325;BME280;4701;51.566;6.776;2022-11-03T11:15:40;100388.72;;;14.99;61.03
9325;BME280;4701;51.566;6.776;2022-11-03T11:17:46;100401.44;;;15.09;60.86
9325;BME280;4701;51.566;6.776;2022-11-03T11:20:30;100397.38;;;15.20;60.13
9325;BME280;4701;51.566;6.776;2022-11-03T11:22:32;100387.41;;;15.24;59.17
9325;BME280;4701;51.566;6.776;2022-11-03T11:24:55;100369.91;;;15.34;59.61
9325;BME280;4701;51.566;6.776;2022-11-03T11:26:58;100375.91;;;15.36;58.64
9325;BME280;4701;51.566;6.776;2022-11-03T11:31:41;100361.13;;;15.59;58.66
9325;BME280;4701;51.566;6.776;2022-11-03T11:33:45;100362.84;;;15.69;58.39
9325;BME280;4701;51.566;6.776;2022-11-03T11:41:05;100363.72;;;16.14;56.95
9325;BME280;4701;51.566;6.776;2022-11-03T11:43:26;100354.06;;;16.03;55.55
9325;BME280;4701;51.566;6.776;2022-11-03T11:48:15;100346.19;;;15.87;55.45
9325;BME280;4701;51.566;6.776;2022-11-03T11:50:24;100340.63;;;16.01;55.59
9325;BME280;4701;51.566;6.776;2022-11-03T11:52:29;100330.16;;;16.03;55.01
9325;BME280;4701;51.566;6.776;2022-11-03T11:54:31;100313.66;;;16.03;55.02
9325;BME280;4701;51.566;6.776;2022-11-03T11:56:33;100315.66;;;16.11;55.40
9325;BME280;4701;51.566;6.776;2022-11-03T11:58:42;100301.66;;;15.99;54.66
9325;BME280;4701;51.566;6.776;2022-11-03T12:00:56;100299.19;;;15.89;55.40
9325;BME280;4701;51.566;6.776;2022-11-03T12:03:00;100296.97;;;16.00;55.93
9325;BME280;4701;51.566;6.776;2022-11-03T12:05:03;100284.03;;;16.22;54.33
9325;BME280;4701;51.566;6.776;2022-11-03T12:07:12;100278.03;;;16.20;54.19
9325;BME280;4701;51.566;6.776;2022-11-03T12:09:16;100287.34;;;16.11;54.69
9325;BME280;4701;51.566;6.776;2022-11-03T12:11:39;100272.38;;;15.95;55.02
9325;BME280;4701;51.566;6.776;2022-11-03T12:13:45;100264.38;;;15.84;55.24
9325;BME280;4701;51.566;6.776;2022-11-03T12:15:49;100262.06;;;15.78;55.88
9325;BME280;4701;51.566;6.776;2022-11-03T12:17:54;100250.06;;;15.74;56.32
9325;BME280;4701;51.566;6.776;2022-11-03T12:19:56;100232.75;;;15.65;56.52
9325;BME280;4701;51.566;6.776;2022-11-03T12:21:58;100236.72;;;15.59;57.16
9325;BME280;4701;51.566;6.776;2022-11-03T12:24:00;100228.31;;;15.41;57.07
9325;BME280;4701;51.566;6.776;2022-11-03T12:26:02;100240.97;;;15.29;57.89
9325;BME280;4701;51.566;6.776;2022-11-03T12:28:05;100229.13;;;15.20;58.47
9325;BME280;4701;51.566;6.776;2022-11-03T12:30:16;100216.50;;;15.19;58.55
9325;BME280;4701;51.566;6.776;2022-11-03T12:32:19;100212.44;;;15.16;58.75
9325;BME280;4701;51.566;6.776;2022-11-03T12:34:21;100221.47;;;15.17;59.00
9325;BME280;4701;51.566;6.776;2022-11-03T12:36:23;100197.41;;;15.13;58.78
9325;BME280;4701;51.566;6.776;2022-11-03T12:38:25;100201.66;;;15.20;59.41
9325;BME280;4701;51.566;6.776;2022-11-03T12:40:27;100188.81;;;15.29;59.17
9325;BME280;4701;51.566;6.776;2022-11-03T12:42:29;100179.03;;;15.36;58.96
9325;BME280;4701;51.566;6.776;2022-11-03T12:44:30;100190.56;;;15.47;58.73
9325;BME280;4701;51.566;6.776;2022-11-03T12:46:33;100188.28;;;15.63;58.32
9325;BME280;4701;51.566;6.776;2022-11-03T12:48:35;100186.56;;;15.75;58.30
9325;BME280;4701;51.566;6.776;2022-11-03T12:50:37;100170.69;;;15.95;57.70
9325;BME280;4701;51.566;6.776;2022-11-03T12:52:40;100169.09;;;16.02;57.12
9325;BME280;4701;51.566;6.776;2022-11-03T12:54:41;100171.19;;;15.97;57.62
9325;BME280;4701;51.566;6.776;2022-11-03T12:56:44;100164.69;;;15.93;57.99
9325;BME280;4701;51.566;6.776;2022-11-03T12:58:45;100145.28;;;15.89;57.62
9325;BME280;4701;51.566;6.776;2022-11-03T13:00:47;100146.66;;;15.78;57.70
9325;BME280;4701;51.566;6.776;2022-11-03T13:02:50;100130.44;;;15.68;58.12
9325;BME280;4701;51.566;6.776;2022-11-03T13:04:52;100132.22;;;15.64;58.04
9325;BME280;4701;51.566;6.776;2022-11-03T13:06:54;100137.56;;;15.69;58.50
9325;BME280;4701;51.566;6.776;2022-11-03T13:08:56;100141.69;;;15.80;58.13
9325;BME280;4701;51.566;6.776;2022-11-03T13:10:58;100123.69;;;15.74;58.10
9325;BME280;4701;51.566;6.776;2022-11-03T13:12:59;100120.16;;;15.73;58.73
9325;BME280;4701;51.566;6.776;2022-11-03T13:15:02;100110.25;;;15.64;58.24
9325;BME280;4701;51.566;6.776;2022-11-03T13:17:04;100098.91;;;15.57;58.63
9325;BME280;4701;51.566;6.776;2022-11-03T13:19:07;100096.06;;;15.48;58.55
9325;BME280;4701;51.566;6.776;2022-11-03T13:21:10;100088.91;;;15.38;59.13
9325;BME280;4701;51.566;6.776;2022-11-03T13:23:13;100095.78;;;15.27;59.06
9325;BME280;4701;51.566;6.776;2022-11-03T13:25:14;100092.53;;;15.25;59.36
9325;BME280;4701;51.566;6.776;2022-11-03T13:27:17;100087.19;;;15.20;59.51
9325;BME280;4701;51.566;6.776;2022-11-03T13:29:18;100098.47;;;15.19;59.84
9325;BME280;4701;51.566;6.776;2022-11-03T13:31:20;100077.94;;;15.16;60.02
9325;BME280;4701;51.566;6.776;2022-11-03T13:33:22;100066.78;;;15.12;60.30
9325;BME280;4701;51.566;6.776;2022-11-03T13:35:25;100057.22;;;15.10;59.67
9325;BME280;4701;51.566;6.776;2022-11-03T13:37:26;100057.38;;;15.05;60.00
9325;BME280;4701;51.566;6.776;2022-11-03T13:39:28;100064.59;;;15.01;60.21
9325;BME280;4701;51.566;6.776;2022-11-03T13:41:30;100053.63;;;15.01;59.93
9325;BME280;4701;51.566;6.776;2022-11-03T13:43:32;100049.94;;;15.05;60.57
9325;BME280;4701;51.566;6.776;2022-11-03T13:45:33;100051.53;;;15.06;60.46
9325;BME280;4701;51.566;6.776;2022-11-03T13:47:35;100044.31;;;15.10;60.39
9325;BME280;4701;51.566;6.776;2022-11-03T13:49:38;100024.34;;;15.19;60.51
9325;BME280;4701;51.566;6.776;2022-11-03T13:51:41;100031.97;;;15.22;60.15
9325;BME280;4701;51.566;6.776;2022-11-03T13:53:43;100024.41;;;15.27;59.98
9325;BME280;4701;51.566;6.776;2022-11-03T13:55:44;100015.97;;;15.24;59.49
9325;BME280;4701;51.566;6.776;2022-11-03T13:57:46;100007.91;;;15.27;59.79
9325;BME280;4701;51.566;6.776;2022-11-03T13:59:48;100014.53;;;15.26;59.92
9325;BME280;4701;51.566;6.776;2022-11-03T14:01:51;100000.44;;;15.19;59.48
9325;BME280;4701;51.566;6.776;2022-11-03T14:03:53;100005.91;;;15.10;59.96
9325;BME280;4701;51.566;6.776;2022-11-03T14:05:54;100004.59;;;15.08;60.41
9325;BME280;4701;51.566;6.776;2022-11-03T14:07:57;100002.09;;;14.98;60.55
9325;BME280;4701;51.566;6.776;2022-11-03T14:09:59;99997.38;;;14.90;60.53
9325;BME280;4701;51.566;6.776;2022-11-03T14:12:01;99994.16;;;14.88;60.69
9325;BME280;4701;51.566;6.776;2022-11-03T14:14:20;99988.47;;;14.84;60.90
9325;BME280;4701;51.566;6.776;2022-11-03T14:16:22;99979.72;;;14.82;61.15
9325;BME280;4701;51.566;6.776;2022-11-03T14:18:24;99978.31;;;14.85;61.37
9325;BME280;4701;51.566;6.776;2022-11-03T14:20:25;99971.19;;;14.84;60.99
9325;BME280;4701;51.566;6.776;2022-11-03T14:22:27;99965.56;;;14.89;61.40
9325;BME280;4701;51.566;6.776;2022-11-03T14:24:31;99960.88;;;14.89;61.13
9325;BME280;4701;51.566;6.776;2022-11-03T14:26:33;99958.47;;;14.88;61.38
9325;BME280;4701;51.566;6.776;2022-11-03T14:28:34;99953.09;;;14.83;61.50
9325;BME280;4701;51.566;6.776;2022-11-03T14:30:36;99955.03;;;14.82;61.67
9325;BME280;4701;51.566;6.776;2022-11-03T14:32:38;99946.13;;;14.76;61.82
9325;BME280;4701;51.566;6.776;2022-11-03T14:34:43;99943.41;;;14.76;62.21
9325;BME280;4701;51.566;6.776;2022-11-03T14:36:45;99942.88;;;14.74;62.13
9325;BME280;4701;51.566;6.776;2022-11-03T14:38:47;99925.94;;;14.72;62.36
9325;BME280;4701;51.566;6.776;2022-11-03T14:40:50;99932.56;;;14.71;62.30
9325;BME280;4701;51.566;6.776;2022-11-03T14:43:09;99930.75;;;14.67;62.15
9325;BME280;4701;51.566;6.776;2022-11-03T14:45:11;99932.31;;;14.59;62.74
9325;BME280;4701;51.566;6.776;2022-11-03T14:47:14;99935.66;;;14.56;63.01
9325;BME280;4701;51.566;6.776;2022-11-03T14:49:17;99934.03;;;14.55;62.91
9325;BME280;4701;51.566;6.776;2022-11-03T14:51:19;99927.59;;;14.51;63.15
9325;BME280;4701;51.566;6.776;2022-11-03T14:53:21;99946.28;;;14.49;62.80
9325;BME280;4701;51.566;6.776;2022-11-03T14:55:23;99947.84;;;14.42;63.54
9325;BME280;4701;51.566;6.776;2022-11-03T14:57:26;99954.75;;;14.39;63.75
9325;BME280;4701;51.566;6.776;2022-11-03T14:59:28;99958.56;;;14.38;64.93
9325;BME280;4701;51.566;6.776;2022-11-03T15:01:30;99962.69;;;14.27;66.32
9325;BME280;4701;51.566;6.776;2022-11-03T15:03:32;99961.72;;;14.09;66.62
9325;BME280;4701;51.566;6.776;2022-11-03T15:05:34;99974.41;;;14.05;66.87
9325;BME280;4701;51.566;6.776;2022-11-03T15:07:45;99973.22;;;13.97;68.38
9325;BME280;4701;51.566;6.776;2022-11-03T15:09:46;99979.63;;;13.93;68.99
9325;BME280;4701;51.566;6.776;2022-11-03T15:11:48;99971.19;;;13.89;69.28
9325;BME280;4701;51.566;6.776;2022-11-03T15:13:51;99970.38;;;13.89;69.54
9325;BME280;4701;51.566;6.776;2022-11-03T15:15:54;99966.13;;;13.83;69.48
9325;BME280;4701;51.566;6.776;2022-11-03T15:17:56;99969.19;;;13.81;69.78
9325;BME280;4701;51.566;6.776;2022-11-03T15:19:58;99968.50;;;13.76;70.09
9325;BME280;4701;51.566;6.776;2022-11-03T15:22:00;99963.81;;;13.76;70.45
9325;BME280;4701;51.566;6.776;2022-11-03T15:24:02;99965.66;;;13.67;71.85
9325;BME280;4701;51.566;6.776;2022-11-03T15:26:04;99968.19;;;13.63;74.05
9325;BME280;4701;51.566;6.776;2022-11-03T15:28:06;99952.28;;;13.52;73.90
9325;BME280;4701;51.566;6.776;2022-11-03T15:30:10;99942.44;;;13.37;75.94
9325;BME280;4701;51.566;6.776;2022-11-03T15:32:12;99945.19;;;13.23;76.67
9325;BME280;4701;51.566;6.776;2022-11-03T15:34:14;99942.34;;;13.15;78.47
9325;BME280;4701;51.566;6.776;2022-11-03T15:36:16;99932.16;;;13.02;79.35
9325;BME280;4701;51.566;6.776;2022-11-03T15:38:18;99929.63;;;12.92;80.60
9325;BME280;4701;51.566;6.776;2022-11-03T15:40:20;99925.72;;;12.79;80.85
9325;BME280;4701;51.566;6.776;2022-11-03T15:42:22;99924.00;;;12.69;82.25
9325;BME280;4701;51.566;6.776;2022-11-03T15:44:24;99920.63;;;12.59;83.37
9325;BME280;4701;51.566;6.776;2022-11-03T15:46:27;99917.97;;;12.54;84.41
9325;BME280;4701;51.566;6.776;2022-11-03T15:48:29;99904.13;;;12.50;84.53
9325;BME280;4701;51.566;6.776;2022-11-03T15:50:31;99906.41;;;12.43;84.83
9325;BME280;4701;51.566;6.776;2022-11-03T15:52:33;99900.50;;;12.36;86.34
9325;BME280;4701;51.566;6.776;2022-11-03T15:54:34;99898.69;;;12.31;86.51
9325;BME280;4701;51.566;6.776;2022-11-03T15:56:36;99882.06;;;12.28;86.72
9325;BME280;4701;51.566;6.776;2022-11-03T15:58:38;99891.16;;;12.23;87.30
9325;BME280;4701;51.566;6.776;2022-11-03T16:00:40;99875.47;;;12.15;88.08
9325;BME280;4701;51.566;6.776;2022-11-03T16:02:44;99871.91;;;12.15;88.25
9325;BME280;4701;51.566;6.776;2022-11-03T16:04:46;99865.13;;;12.12;88.59
9325;BME280;4701;51.566;6.776;2022-11-03T16:06:47;99870.56;;;12.12;89.23
9325;BME280;4701;51.566;6.776;2022-11-03T16:08:49;99871.16;;;12.09;89.58
9325;BME280;4701;51.566;6.776;2022-11-03T16:10:51;99869.25;;;12.09;89.97
9325;BME280;4701;51.566;6.776;2022-11-03T16:12:53;99859.22;;;12.05;90.45
9325;BME280;4701;51.566;6.776;2022-11-03T16:14:55;99851.63;;;12.02;91.23
9325;BME280;4701;51.566;6.776;2022-11-03T16:16:56;99854.97;;;11.99;91.70
9325;BME280;4701;51.566;6.776;2022-11-03T16:19:00;99842.47;;;11.93;92.03